Time;durP1;ratioP1;P1;durP2;ratioP2;P2;SDS_P1;SDS_P2;PMS_P1;PMS_P2;Temp;Humidity;BMP_temperature;BMP_pressure;BME280_temperature;BME280_humidity;BME280_pressure;Samples;Min_cycle;Max_cycle;Signal;HPM_P1;HPM_P2
2021/09/11 00:00:22;;;;;;;34.50;15.90;;;;;;;13.12;56.27;99170.40;111855;1202;112495;-74
2021/09/11 00:03:07;;;;;;;29.60;15.60;;;;;;;13.14;56.56;99170.42;111896;1210;98957;-74
2021/09/11 00:05:36;;;;;;;32.00;16.20;;;;;;;13.17;56.51;99165.38;112838;1201;107939;-74
2021/09/11 00:08:09;;;;;;;31.30;15.40;;;;;;;13.19;56.61;99163.38;111861;1201;98972;-76
2021/09/11 00:10:37;;;;;;;31.30;15.80;;;;;;;13.20;56.59;99160.80;111846;1202;98967;-76
2021/09/11 00:13:04;;;;;;;33.80;16.30;;;;;;;13.20;56.48;99158.65;111863;1201;111147;-74
2021/09/11 00:15:32;;;;;;;30.00;15.80;;;;;;;13.16;56.45;99161.54;112190;1202;99115;-75
2021/09/11 00:18:05;;;;;;;31.00;15.50;;;;;;;13.09;56.56;99156.86;111866;1208;107494;-74
2021/09/11 00:20:36;;;;;;;30.30;15.40;;;;;;;13.07;56.78;99156.72;111877;1208;99007;-74
2021/09/11 00:23:10;;;;;;;31.80;15.00;;;;;;;13.08;56.82;99159.99;111895;1208;99656;-75
2021/09/11 00:25:41;;;;;;;30.20;16.80;;;;;;;13.08;56.98;99161.04;111868;1212;112461;-74
2021/09/11 00:28:09;;;;;;;32.50;15.30;;;;;;;13.08;56.96;99166.40;111855;1206;98997;-74
2021/09/11 00:30:37;;;;;;;31.60;15.40;;;;;;;13.08;57.01;99166.73;111892;1209;107088;-74
2021/09/11 00:33:05;;;;;;;32.80;15.70;;;;;;;13.10;57.22;99165.36;111874;1208;99045;-74
2021/09/11 00:35:36;;;;;;;30.50;14.50;;;;;;;13.12;57.16;99168.80;111922;1205;96302;-75
2021/09/11 00:38:03;;;;;;;28.30;14.20;;;;;;;13.13;57.25;99168.34;111861;1202;113032;-73
2021/09/11 00:40:31;;;;;;;31.20;15.40;;;;;;;13.14;57.25;99167.02;111898;1209;96399;-75
2021/09/11 00:42:59;;;;;;;29.80;15.10;;;;;;;13.15;57.24;99166.98;111865;1208;107624;-75
2021/09/11 00:45:30;;;;;;;32.30;14.70;;;;;;;13.15;57.39;99165.52;111849;1209;99018;-75
2021/09/11 00:47:58;;;;;;;30.60;15.20;;;;;;;13.16;57.37;99163.48;111854;1208;99663;-75
2021/09/11 00:50:30;;;;;;;29.30;13.90;;;;;;;13.16;57.38;99161.34;111893;1208;112666;-73
2021/09/11 00:52:57;;;;;;;29.30;14.40;;;;;;;13.14;57.28;99161.70;111839;1209;98940;-76
2021/09/11 00:55:29;;;;;;;29.70;14.60;;;;;;;13.09;57.21;99160.29;111841;1208;107498;-76
2021/09/11 00:58:01;;;;;;;32.90;15.10;;;;;;;13.05;57.42;99160.11;111881;1208;99037;-74
2021/09/11 01:00:29;;;;;;;28.30;14.00;;;;;;;13.00;57.37;99158.52;111861;1205;96449;-73
2021/09/11 01:03:00;;;;;;;29.90;14.70;;;;;;;12.97;57.40;99163.06;111869;1206;113998;-71
2021/09/11 01:05:31;;;;;;;27.90;13.70;;;;;;;12.92;57.31;99160.20;111906;1208;98933;-74
2021/09/11 01:08:07;;;;;;;32.10;14.90;;;;;;;12.85;57.52;99161.34;111883;1209;107395;-73
2021/09/11 01:10:41;;;;;;;30.90;14.30;;;;;;;12.76;57.74;99164.19;111837;1201;98935;-74
2021/09/11 01:13:12;;;;;;;32.30;16.00;;;;;;;12.70;57.81;99165.75;111843;1212;96407;-74
2021/09/11 01:15:44;;;;;;;28.00;13.90;;;;;;;12.63;57.88;99168.19;111902;1208;112363;-76
2021/09/11 01:18:17;;;;;;;30.50;15.20;;;;;;;12.59;58.06;99172.43;111864;1212;96436;-76
2021/09/11 01:20:45;;;;;;;30.80;14.70;;;;;;;12.55;58.02;99168.54;111872;1208;107526;-75
2021/09/11 01:23:13;;;;;;;29.50;13.10;;;;;;;12.49;57.99;99165.08;111880;1201;98941;-77
2021/09/11 01:25:47;;;;;;;27.60;13.50;;;;;;;12.45;58.26;99165.75;111869;1201;99105;-75
2021/09/11 01:28:20;;;;;;;26.20;11.70;;;;;;;12.42;58.26;99166.86;111857;1210;112590;-77
2021/09/11 01:30:51;;;;;;;28.90;13.60;;;;;;;12.39;58.15;99171.02;111840;1202;99113;-76
2021/09/11 01:33:20;;;;;;;29.80;13.20;;;;;;;12.34;58.43;99171.20;111836;1208;107561;-74
2021/09/11 01:35:54;;;;;;;25.80;13.20;;;;;;;12.30;58.52;99174.20;111856;1201;99017;-75
2021/09/11 01:38:25;;;;;;;30.00;14.10;;;;;;;12.29;58.88;99176.99;111857;1208;99055;-74
2021/09/11 01:40:53;;;;;;;28.00;13.90;;;;;;;12.29;59.02;99177.10;111850;1203;112512;-73
2021/09/11 01:43:30;;;;;;;29.20;14.20;;;;;;;12.32;59.10;99173.69;111886;1209;99001;-74
2021/09/11 01:46:00;;;;;;;32.80;16.40;;;;;;;12.34;59.16;99176.52;111878;1209;107623;-74
2021/09/11 01:48:32;;;;;;;29.30;15.90;;;;;;;12.34;59.09;99176.54;111853;1209;98940;-75
2021/09/11 01:50:59;;;;;;;32.70;16.90;;;;;;;12.34;59.17;99176.33;111858;1208;99053;-72
2021/09/11 01:53:30;;;;;;;35.80;17.80;;;;;;;12.34;59.18;99175.48;111890;1209;112382;-74
2021/09/11 01:55:58;;;;;;;30.40;15.50;;;;;;;12.32;59.21;99174.90;111866;1208;96499;-72
2021/09/11 01:58:26;;;;;;;33.10;17.30;;;;;;;12.31;59.19;99181.40;111895;1208;105739;-75
2021/09/11 02:00:53;;;;;;;31.60;16.00;;;;;;;12.30;59.15;99174.92;111837;1207;99052;-74
2021/09/11 02:03:25;;;;;;;28.30;14.30;;;;;;;12.25;59.22;99175.12;111876;1206;99665;-76
2021/09/11 02:05:57;;;;;;;31.00;16.20;;;;;;;12.20;59.40;99168.70;111875;1208;112473;-75
2021/09/11 02:08:25;;;;;;;31.40;16.20;;;;;;;12.19;59.37;99174.00;111902;1209;98946;-75
2021/09/11 02:10:52;;;;;;;28.70;14.60;;;;;;;12.17;59.43;99174.45;111848;1206;107476;-75
2021/09/11 02:13:25;;;;;;;27.40;14.20;;;;;;;12.17;59.50;99178.27;111879;1202;99022;-74
2021/09/11 02:15:59;;;;;;;28.90;14.30;;;;;;;12.11;59.20;99176.05;111881;1201;98953;-74
2021/09/11 02:18:30;;;;;;;29.30;15.40;;;;;;;12.00;59.15;99175.05;111867;1208;112269;-74
2021/09/11 02:21:01;;;;;;;29.10;14.70;;;;;;;11.91;59.29;99171.83;111865;1209;98963;-75
2021/09/11 02:23:29;;;;;;;23.60;11.80;;;;;;;11.86;59.39;99167.05;111791;1203;107554;-73
2021/09/11 02:25:57;;;;;;;28.90;13.10;;;;;;;11.80;59.20;99163.73;111798;1204;98929;-74
2021/09/11 02:28:25;;;;;;;26.80;13.00;;;;;;;11.70;59.35;99165.91;111876;1202;98935;-75
2021/09/11 02:30:53;;;;;;;25.70;12.70;;;;;;;11.64;59.55;99163.38;111819;1202;112491;-74
2021/09/11 02:33:24;;;;;;;25.70;11.40;;;;;;;11.65;59.91;99163.14;111900;1208;99369;-74
2021/09/11 02:35:52;;;;;;;25.80;12.00;;;;;;;11.69;59.89;99163.39;111988;1207;107453;-74
2021/09/11 02:38:20;;;;;;;26.80;12.40;;;;;;;11.71;59.96;99161.44;111985;1201;99037;-72
2021/09/11 02:40:48;;;;;;;25.90;12.10;;;;;;;11.73;59.98;99162.55;112252;1199;98982;-75
2021/09/11 02:43:15;;;;;;;27.40;11.90;;;;;;;11.74;60.02;99163.34;111887;1201;112495;-75
2021/09/11 02:45:43;;;;;;;26.90;12.30;;;;;;;11.76;60.16;99159.46;112518;1201;98440;-74
2021/09/11 02:48:11;;;;;;;25.90;11.80;;;;;;;11.78;60.14;99161.44;112536;1199;107441;-73
2021/09/11 02:50:39;;;;;;;24.00;11.20;;;;;;;11.80;60.20;99160.04;112004;1201;98891;-74
2021/09/11 02:53:07;;;;;;;25.10;12.30;;;;;;;11.84;60.19;99159.89;111995;1200;99548;-74
2021/09/11 02:55:38;;;;;;;26.50;11.70;;;;;;;11.88;60.26;99158.55;111991;1208;112525;-75
2021/09/11 02:58:06;;;;;;;24.70;11.00;;;;;;;11.91;60.32;99157.09;111988;1199;96383;-74
2021/09/11 03:00:34;;;;;;;23.50;10.30;;;;;;;11.93;60.42;99155.52;112020;1209;107239;-73
2021/09/11 03:03:07;;;;;;;22.40;10.60;;;;;;;11.95;60.40;99156.58;111995;1202;98926;-74
2021/09/11 03:05:35;;;;;;;19.00;8.60;;;;;;;11.98;60.48;99157.31;112040;1206;99048;-74
2021/09/11 03:08:03;;;;;;;25.80;11.20;;;;;;;11.98;60.43;99156.39;111991;1208;112451;-74
2021/09/11 03:10:31;;;;;;;23.30;10.30;;;;;;;11.98;60.49;99156.17;112028;1208;96431;-77
2021/09/11 03:12:59;;;;;;;24.60;10.60;;;;;;;12.00;60.37;99157.98;111983;1208;105585;-78
2021/09/11 03:15:27;;;;;;;24.00;11.00;;;;;;;12.05;60.69;99152.84;111995;1199;99046;-76
2021/09/11 03:17:54;;;;;;;23.00;10.60;;;;;;;12.11;60.63;99153.27;112018;1208;98959;-76
2021/09/11 03:20:26;;;;;;;26.20;11.10;;;;;;;12.16;60.78;99154.67;112023;1208;113614;-75
2021/09/11 03:22:53;;;;;;;22.30;9.90;;;;;;;12.19;60.75;99155.12;112029;1208;98905;-75
2021/09/11 03:25:21;;;;;;;25.40;10.40;;;;;;;12.20;60.72;99149.33;112047;1201;107579;-75
2021/09/11 03:27:49;;;;;;;23.80;11.50;;;;;;;12.22;60.76;99147.29;112012;1199;99109;-77
2021/09/11 03:30:20;;;;;;;22.00;11.30;;;;;;;12.23;60.86;99145.08;112086;1208;99026;-73
2021/09/11 03:32:51;;;;;;;22.40;10.20;;;;;;;12.23;60.82;99144.15;112051;1207;112652;-74
2021/09/11 03:35:20;;;;;;;23.60;11.50;;;;;;;12.24;60.84;99148.33;112014;1207;96506;-75
2021/09/11 03:37:48;;;;;;;23.90;10.80;;;;;;;12.25;60.92;99148.66;112022;1209;107059;-74
2021/09/11 03:40:19;;;;;;;28.70;11.80;;;;;;;12.24;60.84;99148.00;112034;1199;96423;-75
2021/09/11 03:42:47;;;;;;;25.90;12.00;;;;;;;12.23;60.90;99149.29;112037;1202;98963;-74
2021/09/11 03:45:19;;;;;;;26.70;11.80;;;;;;;12.22;60.82;99143.36;111905;1209;112550;-74
2021/09/11 03:47:47;;;;;;;25.30;13.10;;;;;;;12.20;60.92;99141.20;112051;1207;97380;-75
2021/09/11 03:50:18;;;;;;;30.90;13.70;;;;;;;12.17;60.76;99141.91;112045;1209;107568;-74
2021/09/11 03:52:46;;;;;;;29.60;12.80;;;;;;;12.12;60.85;99143.41;111976;1208;99006;-75
2021/09/11 03:55:17;;;;;;;31.10;11.80;;;;;;;12.07;60.87;99144.69;112069;1208;98998;-72
2021/09/11 03:57:45;;;;;;;25.50;11.40;;;;;;;12.04;61.07;99144.73;112037;1207;111176;-74
2021/09/11 04:00:17;;;;;;;27.60;12.70;;;;;;;12.03;61.08;99144.83;112077;1207;99606;-73
2021/09/11 04:02:45;;;;;;;22.40;11.00;;;;;;;12.02;61.04;99139.55;111929;1206;107246;-74
2021/09/11 04:05:16;;;;;;;22.60;10.70;;;;;;;12.01;61.11;99143.70;112044;1206;99048;-74
2021/09/11 04:07:44;;;;;;;23.20;10.30;;;;;;;12.01;61.13;99136.94;112042;1208;96326;-74
2021/09/11 04:10:12;;;;;;;22.20;10.10;;;;;;;12.01;61.08;99134.86;112021;1208;112506;-74
2021/09/11 04:12:39;;;;;;;23.60;10.80;;;;;;;11.99;61.29;99132.66;112046;1207;96420;-75
2021/09/11 04:15:10;;;;;;;23.70;10.70;;;;;;;11.99;61.36;99134.98;111922;1203;107645;-77
2021/09/11 04:17:38;;;;;;;25.20;11.40;;;;;;;11.99;61.34;99133.91;111949;1201;96410;-74
2021/09/11 04:20:10;;;;;;;25.80;11.40;;;;;;;12.01;61.39;99136.43;111904;1201;99038;-75
2021/09/11 04:22:37;;;;;;;23.20;10.50;;;;;;;12.02;61.44;99136.52;111980;1208;112539;-75
2021/09/11 04:25:09;;;;;;;22.70;10.60;;;;;;;12.02;61.37;99138.13;111883;1203;97403;-73
2021/09/11 04:27:37;;;;;;;22.60;10.30;;;;;;;12.02;61.49;99139.56;111974;1199;107478;-74
2021/09/11 04:30:12;;;;;;;23.30;11.20;;;;;;;12.04;61.56;99139.04;112037;1208;98935;-72
2021/09/11 04:32:39;;;;;;;22.40;10.00;;;;;;;12.06;61.66;99142.79;112026;1208;99034;-71
2021/09/11 04:35:08;;;;;;;23.60;10.40;;;;;;;12.07;61.63;99141.28;111966;1202;111589;-74
2021/09/11 04:37:39;;;;;;;26.10;10.80;;;;;;;12.09;61.72;99141.02;112026;1210;98907;-73
2021/09/11 04:40:10;;;;;;;22.70;10.40;;;;;;;12.10;61.69;99142.52;112011;1208;107224;-74
2021/09/11 04:42:38;;;;;;;22.70;9.70;;;;;;;12.10;61.77;99143.36;112048;1199;99068;-74
2021/09/11 04:45:09;;;;;;;22.00;9.40;;;;;;;12.11;61.79;99140.67;112072;1208;96404;-76
2021/09/11 04:47:37;;;;;;;22.10;10.00;;;;;;;12.12;61.76;99135.77;112019;1208;112407;-75
2021/09/11 04:50:08;;;;;;;21.20;10.00;;;;;;;12.14;61.79;99137.07;112078;1208;98988;-75
2021/09/11 04:52:36;;;;;;;25.30;10.90;;;;;;;12.17;61.97;99136.79;112021;1208;107458;-72
2021/09/11 04:55:11;;;;;;;23.00;10.90;;;;;;;12.21;62.00;99136.16;111976;1200;99714;-74
2021/09/11 04:57:39;;;;;;;23.80;9.60;;;;;;;12.24;61.99;99142.83;111931;1208;99033;-74
2021/09/11 05:00:07;;;;;;;26.30;10.00;;;;;;;12.27;61.98;99143.83;111947;1206;112541;-75
2021/09/11 05:02:35;;;;;;;21.10;9.20;;;;;;;12.29;61.97;99144.02;111918;1200;97233;-76
2021/09/11 05:05:09;;;;;;;23.30;9.90;;;;;;;12.30;61.94;99143.43;111982;1208;107567;-72
2021/09/11 05:07:38;;;;;;;27.30;12.40;;;;;;;12.31;61.85;99149.96;111985;1203;99019;-74
2021/09/11 05:10:09;;;;;;;30.80;13.60;;;;;;;12.30;61.72;99148.93;112008;1206;98992;-73
2021/09/11 05:12:36;;;;;;;34.20;15.90;;;;;;;12.28;61.85;99152.83;112024;1208;112422;-75
2021/09/11 05:15:07;;;;;;;42.30;19.40;;;;;;;12.28;61.98;99155.84;112021;1199;99031;-75
2021/09/11 05:17:34;;;;;;;35.50;16.50;;;;;;;12.28;61.93;99157.64;111926;1208;107458;-77
2021/09/11 05:20:02;;;;;;;37.60;18.50;;;;;;;12.27;62.05;99155.77;111963;1206;96501;-75
2021/09/11 05:22:30;;;;;;;33.20;16.90;;;;;;;12.27;62.04;99156.11;112013;1200;96319;-74
2021/09/11 05:24:58;;;;;;;36.80;16.90;;;;;;;12.26;62.17;99159.77;111924;1206;112515;-73
2021/09/11 05:27:26;;;;;;;37.40;16.90;;;;;;;12.28;62.16;99161.89;112025;1208;99080;-72
2021/09/11 05:29:54;;;;;;;29.40;13.40;;;;;;;12.30;62.16;99166.35;111989;1199;107302;-72
2021/09/11 05:32:22;;;;;;;28.40;11.70;;;;;;;12.33;62.33;99163.64;111987;1206;99047;-73
2021/09/11 05:34:53;;;;;;;24.80;11.70;;;;;;;12.39;62.45;99163.52;111983;1200;99141;-73
2021/09/11 05:37:24;;;;;;;25.80;12.80;;;;;;;12.45;62.38;99165.77;111882;1204;112503;-73
2021/09/11 05:39:52;;;;;;;29.80;15.30;;;;;;;12.49;62.30;99162.95;112006;1206;96404;-75
2021/09/11 05:42:20;;;;;;;41.20;22.20;;;;;;;12.52;62.22;99165.04;111901;1200;107454;-72
2021/09/11 05:44:48;;;;;;;32.50;17.10;;;;;;;12.54;62.32;99163.29;112013;1205;99070;-74
2021/09/11 05:47:19;;;;;;;29.30;14.00;;;;;;;12.57;62.49;99163.35;112036;1201;98937;-69
2021/09/11 05:49:47;;;;;;;24.30;11.80;;;;;;;12.64;62.63;99166.02;111889;1205;112525;-76
2021/09/11 05:52:15;;;;;;;23.80;11.30;;;;;;;12.72;62.53;99170.41;111965;1208;99068;-79
2021/09/11 05:54:42;;;;;;;22.40;10.90;;;;;;;12.78;62.59;99166.48;111952;1203;107560;-71
2021/09/11 05:57:10;;;;;;;24.10;10.70;;;;;;;12.88;62.67;99170.74;111851;1202;99090;-74
2021/09/11 05:59:38;;;;;;;24.40;10.80;;;;;;;12.96;62.73;99169.02;112011;1202;99043;-78
2021/09/11 06:02:11;;;;;;;22.50;11.40;;;;;;;13.04;62.82;99170.50;112010;1200;112234;-73
2021/09/11 06:04:39;;;;;;;22.00;11.10;;;;;;;13.12;62.93;99175.19;112062;1206;98943;-78
2021/09/11 06:07:07;;;;;;;24.30;11.80;;;;;;;13.19;62.87;99172.51;111999;1208;106627;-82
2021/09/11 06:09:35;;;;;;;21.30;10.60;;;;;;;13.25;62.98;99180.34;111946;1201;98924;-79
2021/09/11 06:12:05;;;;;;;22.80;10.10;;;;;;;13.31;62.98;99179.18;112021;1206;98911;-78
2021/09/11 06:14:40;;;;;;;22.40;9.80;;;;;;;13.37;63.11;99173.63;111962;1208;112399;-77
2021/09/11 06:17:09;;;;;;;22.90;10.00;;;;;;;13.45;63.10;99171.30;111980;1208;98930;-78
2021/09/11 06:19:39;;;;;;;23.30;10.60;;;;;;;13.53;63.01;99174.02;111948;1208;107517;-78
2021/09/11 06:22:13;;;;;;;23.70;9.70;;;;;;;13.60;63.09;99171.14;111933;1205;98969;-76
2021/09/11 06:24:43;;;;;;;25.00;10.20;;;;;;;13.67;62.95;99167.31;111961;1203;99046;-79
2021/09/11 06:27:13;;;;;;;24.10;10.50;;;;;;;13.72;62.92;99171.34;111975;1208;112048;-77
2021/09/11 06:29:41;;;;;;;21.50;9.20;;;;;;;13.78;63.08;99175.28;111920;1208;99043;-77
2021/09/11 06:32:09;;;;;;;21.40;10.00;;;;;;;13.86;63.16;99174.82;111943;1208;107563;-77
2021/09/11 06:34:40;;;;;;;21.70;10.20;;;;;;;13.93;63.25;99171.58;111979;1199;98960;-81
2021/09/11 06:37:08;;;;;;;23.30;10.40;;;;;;;14.01;63.27;99174.42;111981;1200;98948;-77
2021/09/11 06:39:36;;;;;;;21.60;10.00;;;;;;;14.08;63.25;99175.45;111959;1199;112444;-79
2021/09/11 06:42:04;;;;;;;23.10;11.20;;;;;;;14.18;63.36;99174.09;112036;1200;98964;-82
2021/09/11 06:44:36;;;;;;;22.60;10.70;;;;;;;14.28;63.43;99176.40;111970;1208;107871;-81
2021/09/11 06:47:04;;;;;;;21.70;11.00;;;;;;;14.38;63.47;99177.01;111980;1199;99006;-82
2021/09/11 06:49:32;;;;;;;28.90;14.20;;;;;;;14.48;63.52;99182.04;111990;1206;98946;-79
2021/09/11 06:52:00;;;;;;;28.10;13.40;;;;;;;14.58;63.36;99181.35;111996;1204;112562;-79
2021/09/11 06:54:31;;;;;;;30.30;17.00;;;;;;;14.68;63.21;99183.31;112016;1208;97479;-81
2021/09/11 06:56:59;;;;;;;26.40;11.30;;;;;;;14.77;63.26;99185.81;111966;1208;106526;-78
2021/09/11 06:59:27;;;;;;;25.70;12.30;;;;;;;14.84;63.44;99183.37;111953;1200;99750;-78
2021/09/11 07:01:58;;;;;;;23.10;11.40;;;;;;;14.93;63.56;99179.91;112008;1202;98962;-80
2021/09/11 07:04:26;;;;;;;22.20;11.20;;;;;;;15.03;63.58;99185.13;111909;1209;111897;-80
2021/09/11 07:06:54;;;;;;;23.70;11.30;;;;;;;15.13;63.42;99187.99;111872;1209;99050;-83
2021/09/11 07:09:22;;;;;;;22.50;11.30;;;;;;;15.23;63.39;99187.27;111940;1207;105789;-79
2021/09/11 07:11:52;;;;;;;20.30;8.90;;;;;;;15.32;63.41;99188.94;111935;1208;97133;-81
2021/09/11 07:14:24;;;;;;;22.70;9.70;;;;;;;15.41;63.35;99187.39;111939;1199;96408;-79
2021/09/11 07:16:54;;;;;;;19.80;10.30;;;;;;;15.52;63.59;99185.90;111913;1208;115409;-79
2021/09/11 07:19:22;;;;;;;20.10;9.00;;;;;;;15.65;63.40;99186.02;111965;1208;98885;-82
2021/09/11 07:21:53;;;;;;;20.00;9.40;;;;;;;15.79;63.37;99189.36;111975;1207;109008;-81
2021/09/11 07:24:24;;;;;;;23.20;9.50;;;;;;;16.01;63.35;99195.23;111798;1201;98948;-78
2021/09/11 07:26:54;;;;;;;22.10;8.60;;;;;;;16.42;62.95;99192.27;111957;1203;99081;-79
2021/09/11 07:29:22;;;;;;;20.80;9.00;;;;;;;17.44;61.90;99188.86;111984;1207;113316;-75
2021/09/11 07:31:50;;;;;;;19.90;8.50;;;;;;;18.50;61.28;99187.02;111950;1208;99040;-79
2021/09/11 07:34:18;;;;;;;20.80;8.30;;;;;;;19.47;60.91;99185.51;111891;1208;107439;-73
2021/09/11 07:36:50;;;;;;;19.40;9.00;;;;;;;20.37;60.53;99188.44;111925;1207;98954;-75
2021/09/11 07:39:17;;;;;;;17.60;8.30;;;;;;;21.25;60.38;99188.70;111937;1201;99005;-75
2021/09/11 07:41:45;;;;;;;21.80;9.10;;;;;;;22.01;60.39;99189.74;111918;1207;112428;-76
2021/09/11 07:44:13;;;;;;;18.10;7.90;;;;;;;22.72;60.34;99187.16;111974;1200;96403;-73
2021/09/11 07:46:41;;;;;;;16.90;7.50;;;;;;;23.33;59.94;99192.77;111913;1209;109038;-74
2021/09/11 07:49:08;;;;;;;17.90;7.90;;;;;;;24.02;59.85;99191.52;111956;1200;98940;-74
2021/09/11 07:51:37;;;;;;;18.60;7.30;;;;;;;24.74;59.60;99190.86;112038;1199;96404;-77
2021/09/11 07:54:04;;;;;;;18.50;7.50;;;;;;;25.38;59.13;99191.21;111936;1208;112967;-77
2021/09/11 07:56:32;;;;;;;19.90;7.80;;;;;;;26.04;59.00;99193.26;111978;1207;99109;-72
2021/09/11 07:59:00;;;;;;;18.30;7.30;;;;;;;26.66;58.82;99191.73;111877;1207;107321;-80
2021/09/11 08:01:33;;;;;;;17.90;7.50;;;;;;;27.20;58.65;99194.59;111951;1199;96311;-74
2021/09/11 08:04:02;;;;;;;17.00;7.40;;;;;;;27.88;58.87;99188.61;111946;1200;99051;-78
2021/09/11 08:06:33;;;;;;;18.90;7.30;;;;;;;28.50;58.47;99193.44;111922;1208;111267;-71
2021/09/11 08:09:01;;;;;;;15.40;6.60;;;;;;;28.83;57.98;99197.22;111954;1199;96528;-71
2021/09/11 08:11:29;;;;;;;15.70;7.20;;;;;;;29.08;57.88;99194.49;111935;1207;106315;-72
2021/09/11 08:13:57;;;;;;;18.90;6.70;;;;;;;29.17;57.47;99194.41;111932;1204;99010;-71
2021/09/11 08:16:25;;;;;;;18.70;8.10;;;;;;;29.15;57.09;99196.38;111988;1202;98259;-71
2021/09/11 08:18:53;;;;;;;15.60;6.70;;;;;;;29.14;57.38;99197.02;111821;1203;112763;-70
2021/09/11 08:21:21;;;;;;;14.80;6.50;;;;;;;29.19;57.25;99191.02;111938;1207;98901;-70
2021/09/11 08:23:49;;;;;;;16.40;6.50;;;;;;;29.28;57.02;99187.61;111905;1200;107586;-69
2021/09/11 08:26:17;;;;;;;17.30;7.00;;;;;;;29.58;56.76;99184.97;111925;1199;96382;-70
2021/09/11 08:28:45;;;;;;;19.20;7.00;;;;;;;29.77;56.42;99186.48;111837;1208;98966;-70
2021/09/11 08:31:13;;;;;;;16.50;6.60;;;;;;;29.82;55.80;99185.02;111932;1207;112466;-70
2021/09/11 08:33:42;;;;;;;16.30;6.70;;;;;;;29.99;55.59;99184.77;111994;1199;97397;-71
2021/09/11 08:36:14;;;;;;;16.90;6.70;;;;;;;30.02;55.14;99185.10;111804;1203;108075;-72
2021/09/11 08:38:41;;;;;;;23.70;7.10;;;;;;;30.14;54.99;99180.73;111916;1200;99008;-69
2021/09/11 08:41:13;;;;;;;15.80;7.20;;;;;;;30.39;54.58;99180.15;112048;1200;98998;-69
2021/09/11 08:43:41;;;;;;;;;;;;;;;30.56;54.13;99176.16;111912;1200;105092;-70
2021/09/11 08:46:09;;;;;;;14.90;6.80;;;;;;;30.66;53.87;99172.66;111955;1200;98238;-74
2021/09/11 08:48:37;;;;;;;16.30;6.90;;;;;;;30.72;53.49;99171.24;111940;1207;98971;-70
2021/09/11 08:51:06;;;;;;;15.30;6.70;;;;;;;30.68;53.39;99171.23;111940;1200;97440;-71
2021/09/11 08:53:36;;;;;;;16.70;6.20;;;;;;;30.66;53.50;99171.95;111976;1200;99015;-72
2021/09/11 08:56:06;;;;;;;13.60;6.10;;;;;;;30.51;53.04;99172.04;111906;1208;103833;-73
2021/09/11 08:58:34;;;;;;;17.90;6.90;;;;;;;30.34;52.61;99173.56;112019;1207;99012;-74
2021/09/11 09:01:08;;;;;;;18.00;7.30;;;;;;;30.31;52.37;99172.84;111942;1207;107583;-78
2021/09/11 09:03:44;;;;;;;17.70;7.10;;;;;;;30.31;51.93;99171.91;111928;1200;97656;-74
2021/09/11 09:06:27;;;;;;;15.80;6.90;;;;;;;30.50;51.74;99168.14;111794;1202;98943;-74
2021/09/11 09:09:15;;;;;;;15.00;7.50;;;;;;;30.69;51.45;99164.27;111851;1208;103932;-74
2021/09/11 09:11:47;;;;;;;15.90;6.50;;;;;;;30.83;51.00;99161.97;111926;1200;99463;-74
2021/09/11 09:14:18;;;;;;;15.50;6.80;;;;;;;30.82;50.58;99160.19;111881;1199;99711;-73
2021/09/11 09:16:52;;;;;;;18.90;6.40;;;;;;;30.64;50.05;99160.27;111918;1199;97617;-73
2021/09/11 09:19:27;;;;;;;13.70;6.70;;;;;;;30.51;49.92;99159.02;111913;1201;99038;-85
2021/09/11 09:22:04;;;;;;;14.70;7.00;;;;;;;30.40;50.00;99157.29;111935;1207;112599;-74
2021/09/11 09:24:36;;;;;;;15.70;7.70;;;;;;;30.35;49.38;99156.80;111929;1207;99513;-76
2021/09/11 09:27:11;;;;;;;14.40;7.30;;;;;;;30.38;49.30;99152.14;111844;1207;107446;-75
2021/09/11 09:29:40;;;;;;;16.10;7.50;;;;;;;30.35;49.21;99148.70;111969;1202;99730;-74
2021/09/11 09:32:08;;;;;;;19.20;8.30;;;;;;;30.31;48.92;99154.80;111947;1200;99035;-73
2021/09/11 09:34:44;;;;;;;20.10;8.20;;;;;;;30.41;48.88;99150.95;111885;1208;111419;-75
2021/09/11 09:37:17;;;;;;;15.30;7.70;;;;;;;30.33;48.34;99149.66;111888;1206;99013;-81
2021/09/11 09:39:50;;;;;;;22.00;8.40;;;;;;;30.27;48.31;99148.92;112141;1207;107440;-79
2021/09/11 09:42:19;;;;;;;16.60;8.20;;;;;;;30.22;47.89;99145.65;112060;1207;97131;-76
2021/09/11 09:44:53;;;;;;;17.70;7.90;;;;;;;30.08;47.94;99146.09;111874;1200;96335;-73
2021/09/11 09:47:24;;;;;;;24.00;8.40;;;;;;;29.89;47.44;99139.48;111909;1208;112490;-72
2021/09/11 09:50:15;;;;;;;17.80;7.70;;;;;;;29.75;47.37;99136.84;111982;1207;96635;-74
2021/09/11 09:52:43;;;;;;;16.70;7.70;;;;;;;29.60;47.34;99136.30;111868;1208;107481;-73
2021/09/11 09:55:15;;;;;;;;;;;;;;;29.31;47.02;99139.27;111883;1203;97904;-72
2021/09/11 09:57:50;;;;;;;19.20;8.10;;;;;;;29.07;46.97;99130.67;111958;1199;99036;-72
2021/09/11 10:00:18;;;;;;;17.20;8.00;;;;;;;28.88;46.57;99137.27;111961;1199;112528;-73
2021/09/11 10:02:46;;;;;;;20.40;9.20;;;;;;;28.64;46.50;99140.91;111916;1207;99042;-71
2021/09/11 10:05:22;;;;;;;19.00;7.40;;;;;;;28.42;46.58;99136.23;111918;1202;107452;-71
2021/09/11 10:08:00;;;;;;;18.50;7.90;;;;;;;28.19;46.16;99136.10;111854;1202;98985;-75
2021/09/11 10:10:34;;;;;;;18.70;7.90;;;;;;;28.00;46.04;99136.66;111941;1200;97451;-76
2021/09/11 10:13:17;;;;;;;19.80;8.20;;;;;;;27.81;46.13;99137.92;111896;1207;112483;-76
2021/09/11 10:16:01;;;;;;;17.30;8.50;;;;;;;27.67;45.84;99137.41;111907;1199;97022;-75
2021/09/11 10:18:35;;;;;;;42.30;15.50;;;;;;;27.54;46.12;99133.98;111895;1207;107465;-85
2021/09/11 10:21:19;;;;;;;40.60;20.50;;;;;;;27.44;45.81;99133.06;112081;1207;99026;-78
2021/09/11 10:23:56;;;;;;;29.00;13.10;;;;;;;27.37;45.91;99132.59;111957;1202;98962;-79
2021/09/11 10:26:58;;;;;;;25.90;9.40;;;;;;;27.32;45.84;99128.34;112003;1199;112203;-69
2021/09/11 10:29:33;;;;;;;;;;;;;;;27.27;45.41;99123.92;111987;1207;98932;-71
2021/09/11 10:32:39;;;;;;;18.30;7.20;;;;;;;27.18;45.40;99125.70;111899;1208;108995;-72
2021/09/11 10:35:16;;;;;;;34.00;15.60;;;;;;;27.06;45.26;99123.79;111936;1200;98964;-70
2021/09/11 10:37:57;;;;;;;23.10;10.40;;;;;;;27.01;45.04;99127.21;111981;1199;98975;-67
2021/09/11 10:40:37;;;;;;;29.40;15.10;;;;;;;27.00;45.15;99125.88;111923;1200;112493;-70
2021/09/11 10:43:16;;;;;;;35.20;16.50;;;;;;;27.00;45.01;99125.37;111800;1202;97843;-71
2021/09/11 10:45:53;;;;;;;21.70;8.20;;;;;;;26.99;45.07;99124.08;111914;1208;107475;-69
2021/09/11 10:48:43;;;;;;;23.70;9.80;;;;;;;26.97;44.96;99122.91;111864;1202;97452;-71
2021/09/11 10:51:35;;;;;;;21.00;9.20;;;;;;;26.98;44.94;99110.77;111848;1207;98992;-72
2021/09/11 10:54:22;;;;;;;29.80;10.50;;;;;;;26.97;44.78;99112.41;112155;1200;112538;-74
2021/09/11 10:57:03;;;;;;;19.10;7.60;;;;;;;26.92;44.84;99107.11;111938;1207;99025;-70
2021/09/11 10:59:35;;;;;;;21.50;9.20;;;;;;;26.88;44.62;99107.26;111888;1203;107465;-71
2021/09/11 11:02:12;;;;;;;14.90;6.40;;;;;;;26.82;44.68;99107.36;111969;1207;99358;-71
2021/09/11 11:04:49;;;;;;;12.90;6.10;;;;;;;26.74;44.43;99106.79;111945;1207;99014;-70
2021/09/11 11:07:17;;;;;;;14.80;5.90;;;;;;;26.64;44.19;99102.91;111947;1207;112487;-72
2021/09/11 11:09:50;;;;;;;16.70;6.20;;;;;;;26.51;43.96;99101.13;111928;1207;99051;-71
2021/09/11 11:12:29;;;;;;;19.10;6.00;;;;;;;26.36;43.87;99098.48;111908;1200;107917;-74
2021/09/11 11:15:03;;;;;;;15.40;6.10;;;;;;;26.30;44.06;99098.28;111861;1202;99080;-74
2021/09/11 11:17:38;;;;;;;16.20;6.60;;;;;;;26.27;44.04;99099.80;111950;1202;98991;-72
2021/09/11 11:20:10;;;;;;;12.30;5.70;;;;;;;26.26;43.83;99101.84;111835;1201;113499;-70
2021/09/11 11:22:42;;;;;;;17.80;7.10;;;;;;;26.26;43.79;99097.85;111830;1203;99105;-68
2021/09/11 11:25:16;;;;;;;15.10;6.60;;;;;;;26.31;44.14;99097.48;111864;1207;107358;-75